Weather Station Data

Station Data Captured at Five Minute Intervals Since Midnight Local Time


Date Time Temp. RH % Dew Pt. Wind Speed Wind Dir. Peak Wind Wind Chill Pressure Precip. Solar W/m2 ET
2/22/20 1:40p 44.7 40 21.8 4.0 S 9.0 42.7 30.394 0.00 654 0.000
2/22/20 1:35p 44.7 37 20.0 4.0 S 8.0 42.7 30.398 0.00 658 0.000
2/22/20 1:30p 44.7 37 20.0 5.0 SSW 9.0 42.0 30.399 0.00 661 0.000
2/22/20 1:25p 44.6 39 21.1 4.0 SSW 9.0 42.6 30.403 0.00 663 0.000
2/22/20 1:20p 44.1 40 21.3 4.0 S 9.0 42.0 30.406 0.00 665 0.000
2/22/20 1:15p 43.2 41 21.1 4.0 SSW 9.0 41.0 30.408 0.00 667 0.000
2/22/20 1:10p 43.1 39 19.8 5.0 S 10.0 40.1 30.414 0.00 668 0.000
2/22/20 1:05p 43.6 37 19.0 6.0 SSW 13.0 40.0 30.418 0.00 672 0.000
2/22/20 1:00p 43.9 40 21.1 4.0 SSW 14.0 41.8 30.420 0.00 670 0.012
2/22/20 12:55p 43.4 40 20.7 4.0 SSW 11.0 41.2 30.423 0.00 669 0.000
2/22/20 12:50p 43.0 41 20.9 3.0 SSW 8.0 41.8 30.425 0.00 667 0.000
2/22/20 12:45p 43.2 41 21.1 4.0 SSW 8.0 41.0 30.428 0.00 666 0.000
2/22/20 12:40p 43.2 40 20.5 3.0 SSW 9.0 42.0 30.430 0.00 666 0.000
2/22/20 12:35p 42.8 40 20.1 3.0 SSW 7.0 41.6 30.431 0.00 664 0.000
2/22/20 12:30p 42.4 40 19.8 4.0 SSW 7.0 40.1 30.435 0.00 663 0.000
2/22/20 12:25p 42.0 41 20.0 3.0 SSE 7.0 40.6 30.440 0.00 659 0.000
2/22/20 12:20p 41.8 42 20.4 3.0 S 6.0 40.4 30.443 0.00 657 0.000
2/22/20 12:15p 40.8 42 19.5 3.0 SW 7.0 39.3 30.447 0.00 653 0.000
2/22/20 12:10p 40.3 43 19.5 4.0 S 9.0 37.7 30.450 0.00 650 0.000
2/22/20 12:05p 39.8 45 20.2 4.0 S 10.0 37.1 30.453 0.00 646 0.000
2/22/20 12:00p 39.7 46 20.6 5.0 S 10.0 36.1 30.455 0.00 642 0.010
2/22/20 11:55a 39.7 48 21.6 3.0 SSW 8.0 38.0 30.458 0.00 632 0.000
2/22/20 11:50a 39.3 47 20.7 3.0 S 7.0 37.6 30.458 0.00 629 0.000
2/22/20 11:45a 38.8 49 21.3 3.0 SSW 7.0 37.0 30.459 0.00 624 0.000
2/22/20 11:40a 38.2 48 20.2 4.0 SSW 9.0 35.2 30.457 0.00 617 0.000
2/22/20 11:35a 37.6 49 20.1 4.0 SSE 8.0 34.5 30.456 0.00 610 0.000
2/22/20 11:30a 37.8 50 20.8 4.0 SSW 8.0 34.8 30.459 0.00 603 0.000
2/22/20 11:25a 37.3 52 21.3 4.0 SSW 8.0 34.2 30.459 0.00 597 0.000
2/22/20 11:20a 36.6 52 20.6 5.0 SSW 8.0 32.5 30.460 0.00 589 0.000
2/22/20 11:15a 36.4 52 20.4 4.0 SSE 9.0 33.2 30.460 0.00 581 0.000
2/22/20 11:10a 36.1 54 21.0 4.0 SSW 7.0 32.8 30.462 0.00 574 0.000
2/22/20 11:05a 35.3 56 21.2 3.0 SSE 6.0 33.0 30.463 0.00 561 0.000
2/22/20 11:00a 34.7 56 20.6 5.0 SSW 9.0 30.2 30.463 0.00 542 0.006
2/22/20 10:55a 34.1 57 20.4 5.0 SSW 10.0 29.5 30.468 0.00 542 0.000
2/22/20 10:50a 33.9 58 20.7 6.0 S 10.0 28.5 30.469 0.00 502 0.000
2/22/20 10:45a 33.8 56 19.7 5.0 S 9.0 29.2 30.472 0.00 492 0.000
2/22/20 10:40a 33.9 56 19.8 4.0 SSW 9.0 30.3 30.475 0.00 469 0.000
2/22/20 10:35a 33.6 60 21.2 3.0 SSW 6.0 31.1 30.476 0.00 385 0.000
2/22/20 10:30a 32.8 60 20.4 4.0 SSW 7.0 29.0 30.481 0.00 396 0.000
2/22/20 10:25a 32.2 60 19.9 5.0 S 9.0 27.3 30.483 0.00 385 0.000
2/22/20 10:20a 32.1 59 19.4 6.0 SSW 9.0 26.3 30.486 0.00 317 0.000
2/22/20 10:15a 31.9 60 19.6 4.0 SSW 7.0 28.0 30.486 0.00 213 0.000
2/22/20 10:10a 31.6 60 19.3 5.0 SSW 9.0 26.6 30.490 0.00 234 0.000
2/22/20 10:05a 31.4 61 19.5 4.0 SSW 9.0 27.4 30.491 0.00 123 0.000
2/22/20 10:00a 31.0 62 19.5 3.0 SSW 6.0 28.2 30.494 0.00 55 0.003
2/22/20 9:55a 30.5 63 19.4 4.0 SSW 8.0 26.3 30.497 0.00 138 0.000
2/22/20 9:50a 30.1 61 18.3 5.0 SSW 10.0 24.8 30.497 0.00 116 0.000
2/22/20 9:45a 30.2 63 19.1 4.0 SSW 8.0 26.0 30.501 0.00 221 0.000
2/22/20 9:40a 29.9 63 18.8 4.0 SSW 9.0 25.7 30.501 0.00 222 0.000
2/22/20 9:35a 29.6 64 18.9 4.0 SSW 6.0 25.3 30.502 0.00 274 0.000
2/22/20 9:30a 29.4 64 18.7 4.0 SSW 8.0 25.1 30.504 0.00 202 0.000
2/22/20 9:25a 29.2 64 18.5 4.0 S 7.0 24.8 30.506 0.00 227 0.000
2/22/20 9:20a 29.0 64 18.3 3.0 SSW 5.0 25.9 30.507 0.00 201 0.000
2/22/20 9:15a 28.8 64 18.1 4.0 SSW 7.0 24.4 30.509 0.00 280 0.000
2/22/20 9:10a 28.5 65 18.2 3.0 SSW 6.0 25.4 30.506 0.00 262 0.000
2/22/20 9:05a 28.2 66 18.3 4.0 SSW 7.0 23.7 30.507 0.00 223 0.000
2/22/20 9:00a 27.8 67 18.3 4.0 SSW 7.0 23.2 30.504 0.00 217 0.001
2/22/20 8:55a 27.3 68 18.1 4.0 SSW 6.0 22.6 30.504 0.00 174 0.000
2/22/20 8:50a 26.8 69 18.0 2.0 S 5.0 25.3 30.501 0.00 171 0.000
2/22/20 8:45a 26.3 69 17.5 3.0 S 6.0 22.9 30.497 0.00 162 0.000
2/22/20 8:40a 25.8 69 17.0 2.0 S 5.0 24.2 30.496 0.00 118 0.000
2/22/20 8:35a 25.4 68 16.3 3.0 S 6.0 21.9 30.495 0.00 80 0.000
2/22/20 8:30a 25.1 69 16.4 3.0 S 7.0 21.5 30.493 0.00 37 0.000
2/22/20 8:25a 24.8 69 16.1 4.0 S 5.0 19.8 30.492 0.00 42 0.000
2/22/20 8:20a 24.4 69 15.7 3.0 S 6.0 20.7 30.492 0.00 53 0.000
2/22/20 8:15a 24.0 70 15.6 4.0 S 7.0 18.8 30.491 0.00 25 0.000
2/22/20 8:10a 23.7 70 15.3 3.0 S 5.0 19.9 30.489 0.00 22 0.000
2/22/20 8:05a 23.4 70 15.1 2.0 S 4.0 21.5 30.489 0.00 20 0.000
2/22/20 8:00a 23.2 70 14.9 2.0 S 5.0 21.3 30.491 0.00 19 0.000
2/22/20 7:55a 23.0 70 14.7 2.0 S 4.0 21.1 30.489 0.00 17 0.000
2/22/20 7:50a 22.8 70 14.5 2.0 S 5.0 20.9 30.487 0.00 14 0.000
2/22/20 7:45a 22.7 70 14.4 2.0 SSW 4.0 20.7 30.486 0.00 12 0.000
2/22/20 7:40a 22.7 70 14.4 2.0 S 3.0 20.7 30.483 0.00 11 0.000
2/22/20 7:35a 22.7 70 14.4 2.0 S 4.0 20.7 30.485 0.00 8 0.000
2/22/20 7:30a 22.6 70 14.3 2.0 SSW 5.0 20.6 30.486 0.00 4 0.000
2/22/20 7:25a 22.6 70 14.3 1.0 S 3.0 22.6 30.486 0.00 0 0.000
2/22/20 7:20a 22.7 70 14.4 1.0 S 3.0 22.7 30.486 0.00 0 0.000
2/22/20 7:15a 22.7 70 14.4 1.0 S 3.0 22.7 30.486 0.00 0 0.000
2/22/20 7:10a 22.7 70 14.4 1.0 S 3.0 22.7 30.487 0.00 0 0.000
2/22/20 7:05a 22.7 70 14.4 2.0 S 3.0 20.7 30.487 0.00 0 0.000
2/22/20 7:00a 22.7 70 14.4 1.0 S 3.0 22.7 30.488 0.00 0 0.001
2/22/20 6:55a 22.7 70 14.4 2.0 SSE 4.0 20.7 30.488 0.00 0 0.000
2/22/20 6:50a 22.7 70 14.4 1.0 SSW 3.0 22.7 30.486 0.00 0 0.000
2/22/20 6:45a 22.8 70 14.5 2.0 SSW 4.0 20.9 30.487 0.00 0 0.000
2/22/20 6:40a 22.8 70 14.5 2.0 SSW 4.0 20.9 30.489 0.00 0 0.000
2/22/20 6:35a 22.9 70 14.6 2.0 S 4.0 21.0 30.484 0.00 0 0.000
2/22/20 6:30a 22.9 70 14.6 2.0 S 3.0 21.0 30.486 0.00 0 0.000
2/22/20 6:25a 22.9 70 14.6 2.0 SSW 4.0 21.0 30.487 0.00 0 0.000
2/22/20 6:20a 23.0 70 14.7 2.0 S 4.0 21.1 30.486 0.00 0 0.000
2/22/20 6:15a 23.1 70 14.8 2.0 S 4.0 21.2 30.484 0.00 0 0.000
2/22/20 6:10a 23.1 70 14.8 2.0 S 3.0 21.2 30.482 0.00 0 0.000
2/22/20 6:05a 23.2 70 14.9 1.0 S 3.0 23.2 30.482 0.00 0 0.000
2/22/20 6:00a 23.2 70 14.9 1.0 SW 3.0 23.2 30.482 0.00 0 0.000
2/22/20 5:55a 23.2 70 14.9 1.0 SW 3.0 23.2 30.480 0.00 0 0.000
2/22/20 5:50a 23.2 70 14.9 1.0 SW 2.0 23.2 30.480 0.00 0 0.000
2/22/20 5:45a 23.1 71 15.1 1.0 SW 4.0 23.1 30.478 0.00 0 0.000
2/22/20 5:40a 23.0 71 15.0 1.0 S 3.0 23.0 30.477 0.00 0 0.000
2/22/20 5:35a 22.8 71 14.8 1.0 S 3.0 22.8 30.477 0.00 0 0.000
2/22/20 5:30a 22.6 71 14.6 1.0 S 3.0 22.6 30.472 0.00 0 0.000
2/22/20 5:25a 22.6 71 14.6 1.0 S 2.0 22.6 30.473 0.00 0 0.000
2/22/20 5:20a 22.7 70 14.4 1.0 S 2.0 22.7 30.474 0.00 0 0.000
2/22/20 5:15a 22.9 70 14.6 1.0 S 2.0 22.9 30.475 0.00 0 0.000
2/22/20 5:10a 22.9 70 14.6 0.0 S 2.0 22.9 30.473 0.00 0 0.000
2/22/20 5:05a 23.1 70 14.8 0.0 S 1.0 23.1 30.475 0.00 0 0.000
2/22/20 5:00a 23.1 70 14.8 0.0 S 1.0 23.1 30.475 0.00 0 0.000
2/22/20 4:55a 23.1 70 14.8 1.0 S 2.0 23.1 30.476 0.00 0 0.000
2/22/20 4:50a 23.0 69 14.3 1.0 S 2.0 23.0 30.474 0.00 0 0.000
2/22/20 4:45a 23.1 69 14.4 1.0 S 2.0 23.1 30.471 0.00 0 0.000
2/22/20 4:40a 23.3 69 14.6 1.0 S 3.0 23.3 30.471 0.00 0 0.000
2/22/20 4:35a 23.4 69 14.7 1.0 S 2.0 23.4 30.470 0.00 0 0.000
2/22/20 4:30a 23.4 70 15.1 1.0 S 2.0 23.4 30.470 0.00 0 0.000
2/22/20 4:25a 23.3 70 15.0 1.0 S 3.0 23.3 30.471 0.00 0 0.000
2/22/20 4:20a 23.2 70 14.9 1.0 S 3.0 23.2 30.470 0.00 0 0.000
2/22/20 4:15a 23.3 69 14.6 1.0 S 2.0 23.3 30.469 0.00 0 0.000
2/22/20 4:10a 23.4 69 14.7 1.0 S 2.0 23.4 30.468 0.00 0 0.000
2/22/20 4:05a 23.5 68 14.5 1.0 S 2.0 23.5 30.467 0.00 0 0.000
2/22/20 4:00a 23.5 68 14.5 1.0 S 2.0 23.5 30.469 0.00 0 0.001
2/22/20 3:55a 23.6 68 14.6 0.0 S 1.0 23.6 30.469 0.00 0 0.000
2/22/20 3:50a 23.9 68 14.9 1.0 S 2.0 23.9 30.468 0.00 0 0.000
2/22/20 3:45a 24.2 68 15.2 0.0 S 2.0 24.2 30.468 0.00 0 0.000
2/22/20 3:40a 24.4 66 14.7 0.0 --- 0.0 24.4 30.468 0.00 0 0.000
2/22/20 3:35a 24.5 65 14.4 0.0 --- 0.0 24.5 30.467 0.00 0 0.000
2/22/20 3:30a 24.5 65 14.4 0.0 --- 0.0 24.5 30.467 0.00 0 0.000
2/22/20 3:25a 24.7 65 14.6 0.0 S 1.0 24.7 30.467 0.00 0 0.000
2/22/20 3:20a 24.8 64 14.3 0.0 S 1.0 24.8 30.467 0.00 0 0.000
2/22/20 3:15a 24.9 64 14.4 0.0 S 2.0 24.9 30.466 0.00 0 0.000
2/22/20 3:10a 25.0 64 14.5 0.0 S 1.0 25.0 30.468 0.00 0 0.000
2/22/20 3:05a 25.1 63 14.3 0.0 S 1.0 25.1 30.468 0.00 0 0.000
2/22/20 3:00a 25.1 63 14.3 0.0 S 2.0 25.1 30.469 0.00 0 0.001
2/22/20 2:55a 25.2 63 14.4 0.0 S 1.0 25.2 30.469 0.00 0 0.000
2/22/20 2:50a 25.2 63 14.4 0.0 S 2.0 25.2 30.470 0.00 0 0.000
2/22/20 2:45a 25.2 62 14.0 0.0 S 2.0 25.2 30.469 0.00 0 0.000
2/22/20 2:40a 25.2 62 14.0 0.0 S 2.0 25.2 30.471 0.00 0 0.000
2/22/20 2:35a 25.2 62 14.0 0.0 S 1.0 25.2 30.475 0.00 0 0.000
2/22/20 2:30a 25.3 62 14.1 0.0 S 1.0 25.3 30.474 0.00 0 0.000
2/22/20 2:25a 25.4 61 13.8 0.0 S 1.0 25.4 30.478 0.00 0 0.000
2/22/20 2:20a 25.4 61 13.8 0.0 S 1.0 25.4 30.480 0.00 0 0.000
2/22/20 2:15a 25.5 61 13.9 0.0 S 1.0 25.5 30.481 0.00 0 0.000
2/22/20 2:10a 25.5 61 13.9 0.0 S 2.0 25.5 30.481 0.00 0 0.000
2/22/20 2:05a 25.6 60 13.6 1.0 S 2.0 25.6 30.480 0.00 0 0.000
2/22/20 2:00a 25.6 60 13.6 1.0 S 2.0 25.6 30.483 0.00 0 0.001
2/22/20 1:55a 25.7 60 13.7 0.0 S 2.0 25.7 30.487 0.00 0 0.000
2/22/20 1:50a 25.8 60 13.8 0.0 S 1.0 25.8 30.488 0.00 0 0.000
2/22/20 1:45a 25.8 59 13.4 1.0 S 3.0 25.8 30.490 0.00 0 0.000
2/22/20 1:40a 25.9 59 13.5 1.0 S 3.0 25.9 30.491 0.00 0 0.000
2/22/20 1:35a 26.0 59 13.6 1.0 S 3.0 26.0 30.491 0.00 0 0.000
2/22/20 1:30a 26.1 59 13.7 1.0 S 4.0 26.1 30.491 0.00 0 0.000
2/22/20 1:25a 26.1 59 13.7 1.0 S 4.0 26.1 30.494 0.00 0 0.000
2/22/20 1:20a 26.2 58 13.4 2.0 SSW 4.0 24.6 30.494 0.00 0 0.000
2/22/20 1:15a 26.3 58 13.5 2.0 SSW 4.0 24.7 30.495 0.00 0 0.000
2/22/20 1:10a 26.3 58 13.5 2.0 SW 4.0 24.7 30.496 0.00 0 0.000
2/22/20 1:05a 26.3 58 13.5 2.0 SW 4.0 24.7 30.497 0.00 0 0.000
2/22/20 1:00a 26.4 58 13.6 2.0 SSW 5.0 24.8 30.497 0.00 0 0.001
2/22/20 12:55a 26.3 58 13.5 3.0 SSW 4.0 22.9 30.498 0.00 0 0.000
2/22/20 12:50a 26.3 58 13.5 2.0 SSW 3.0 24.7 30.501 0.00 0 0.000
2/22/20 12:45a 26.4 58 13.6 2.0 S 3.0 24.8 30.502 0.00 0 0.000
2/22/20 12:40a 26.5 58 13.7 2.0 S 4.0 24.9 30.502 0.00 0 0.000
2/22/20 12:35a 26.7 58 13.9 1.0 SSW 3.0 26.7 30.503 0.00 0 0.000
2/22/20 12:30a 26.8 58 14.0 1.0 SSW 3.0 26.8 30.504 0.00 0 0.000
2/22/20 12:25a 26.9 57 13.7 1.0 SSW 2.0 26.9 30.505 0.00 0 0.000
2/22/20 12:20a 27.0 57 13.8 2.0 SSW 4.0 25.5 30.505 0.00 0 0.000
2/22/20 12:15a 27.0 57 13.8 2.0 S 4.0 25.5 30.508 0.00 0 0.000
2/22/20 12:10a 27.1 57 13.9 1.0 S 4.0 27.1 30.508 0.00 0 0.000
2/22/20 12:05a 27.2 57 14.0 1.0 S 3.0 27.2 30.510 0.00 0 0.000
2/22/20 12:00a 27.3 56 13.7 1.0 S 2.0 27.3 30.511 0.00 0 0.001

13,296 Page Views